createdAt,value
2018-12-02T00:00:50.382Z,82.54
2018-12-02T00:01:50.367Z,82.44
2018-12-02T00:02:50.361Z,82.54
2018-12-02T00:03:50.352Z,82.65
2018-12-02T00:04:50.334Z,82.48
2018-12-02T00:05:50.319Z,82.68
2018-12-02T00:06:50.318Z,82.54
2018-12-02T00:07:50.298Z,82.54
2018-12-02T00:08:50.298Z,82.44
2018-12-02T00:09:50.277Z,82.54
2018-12-02T00:10:50.263Z,82.54
2018-12-02T00:11:50.252Z,82.65
2018-12-02T00:12:50.240Z,82.65
2018-12-02T00:13:50.248Z,82.65
2018-12-02T00:14:50.219Z,82.37
2018-12-02T00:15:50.207Z,82.44
2018-12-02T00:16:50.196Z,82.34
2018-12-02T00:17:50.192Z,82.58
2018-12-02T00:18:50.185Z,82.23
2018-12-02T00:19:50.177Z,82.34
2018-12-02T00:20:50.153Z,82.54
2018-12-02T00:21:50.159Z,82.65
2018-12-02T00:22:50.638Z,82.48
2018-12-02T00:23:50.139Z,82.23
2018-12-02T00:24:50.109Z,82.86
2018-12-02T00:25:50.109Z,82.13
2018-12-02T00:26:50.091Z,82.54
2018-12-02T00:27:50.077Z,82.44
2018-12-02T00:28:50.076Z,82.44
2018-12-02T00:29:50.055Z,82.34
2018-12-02T00:30:50.046Z,82.44
2018-12-02T00:31:50.033Z,82.54
2018-12-02T00:32:50.041Z,82.54
2018-12-02T00:33:50.048Z,82.44
2018-12-02T00:34:50.009Z,82.54
2018-12-02T00:35:49.984Z,82.58
2018-12-02T00:36:49.971Z,82.54
2018-12-02T00:37:49.958Z,82.34
2018-12-02T00:38:49.947Z,82.34
2018-12-02T00:39:49.948Z,82.34
2018-12-02T00:40:49.930Z,81.82
2018-12-02T00:41:49.914Z,82.23
2018-12-02T00:42:49.909Z,82.54
2018-12-02T00:43:49.895Z,82.58
2018-12-02T00:44:49.910Z,82.23
2018-12-02T00:45:49.873Z,81.82
2018-12-02T00:46:49.862Z,82.03
2018-12-02T00:47:49.873Z,82.23
2018-12-02T00:48:49.834Z,81.92
2018-12-02T00:49:49.829Z,81.92
2018-12-02T00:50:49.831Z,82.34
2018-12-02T00:51:49.804Z,82.34
2018-12-02T00:52:49.793Z,82.34
2018-12-02T00:53:49.778Z,82.54
2018-12-02T00:54:49.766Z,82.65
2018-12-02T00:55:49.770Z,82.54
2018-12-02T00:56:49.745Z,82.23
2018-12-02T00:57:49.735Z,82.23
2018-12-02T00:58:49.722Z,82.34
2018-12-02T00:59:49.712Z,81.88
2018-12-02T01:00:49.723Z,82.13
2018-12-02T01:01:49.689Z,82.09
2018-12-02T01:02:49.687Z,81.99
2018-12-02T01:03:49.668Z,81.71
2018-12-02T01:04:49.658Z,81.57
2018-12-02T01:05:49.656Z,81.47
2018-12-02T01:06:53.595Z,81.57
2018-12-02T01:07:49.621Z,81.37
2018-12-02T01:08:49.613Z,81.88
2018-12-02T01:09:49.603Z,81.47
2018-12-02T01:10:49.601Z,81.37
2018-12-02T01:11:49.576Z,81.47
2018-12-02T01:12:49.565Z,81.57
2018-12-02T01:13:49.559Z,81.57
2018-12-02T01:14:49.544Z,81.47
2018-12-02T01:15:49.546Z,81.37
2018-12-02T01:16:49.524Z,81.37
2018-12-02T01:17:49.523Z,81.88
2018-12-02T01:18:49.498Z,81.37
2018-12-02T01:19:49.485Z,81.78
2018-12-02T01:20:49.487Z,81.37
2018-12-02T01:21:49.462Z,81.57
2018-12-02T01:22:49.490Z,81.37
2018-12-02T01:23:49.441Z,81.37
2018-12-02T01:24:49.431Z,81.37
2018-12-02T01:25:49.448Z,81.57
2018-12-02T01:26:49.471Z,81.37
2018-12-02T01:27:49.405Z,81.37
2018-12-02T01:28:49.420Z,81.51
2018-12-02T01:29:49.377Z,81.47
2018-12-02T01:30:49.385Z,81.16
2018-12-02T01:31:49.354Z,81.37
2018-12-02T01:32:49.372Z,81.37
2018-12-02T01:33:49.338Z,81.05
2018-12-02T01:34:49.331Z,81.26
2018-12-02T01:35:49.327Z,81.47
2018-12-02T01:36:49.306Z,81.47
2018-12-02T01:37:49.295Z,81.47
2018-12-02T01:38:49.284Z,81.26
2018-12-02T01:39:49.274Z,80.95
2018-12-02T01:40:49.271Z,80.95
2018-12-02T01:41:49.274Z,81.26
2018-12-02T01:42:49.232Z,81.05
2018-12-02T01:43:49.269Z,80.95
2018-12-02T01:44:49.219Z,81.26
2018-12-02T01:45:49.259Z,81.30
2018-12-02T01:46:49.189Z,81.57
2018-12-02T01:47:49.182Z,81.51
2018-12-02T01:48:49.172Z,82.03
2018-12-02T01:49:49.163Z,82.03
2018-12-02T01:50:49.152Z,81.92
2018-12-02T01:51:49.152Z,81.92
2018-12-02T01:52:49.128Z,81.82
2018-12-02T01:53:49.113Z,81.82
2018-12-02T01:54:49.103Z,81.40
2018-12-02T01:55:49.092Z,81.71
2018-12-02T01:56:49.119Z,81.82
2018-12-02T01:57:49.062Z,82.13
2018-12-02T01:58:49.117Z,82.34
2018-12-02T01:59:49.040Z,82.34
2018-12-02T02:00:49.045Z,82.58
2018-12-02T02:01:49.033Z,82.68
2018-12-02T02:02:49.010Z,82.17
2018-12-02T02:03:49.026Z,82.79
2018-12-02T02:04:48.990Z,82.37
2018-12-02T02:05:48.983Z,82.79
2018-12-02T02:06:49.994Z,83.31
2018-12-02T02:07:48.964Z,83.20
2018-12-02T02:08:48.942Z,83.20
2018-12-02T02:09:48.947Z,83.20
2018-12-02T02:10:48.914Z,83.41
2018-12-02T02:11:48.927Z,83.55
2018-12-02T02:12:48.914Z,83.45
2018-12-02T02:13:48.908Z,83.34
2018-12-02T02:14:48.871Z,83.31
2018-12-02T02:15:48.871Z,83.41
2018-12-02T02:16:48.859Z,83.00
2018-12-02T02:17:48.867Z,82.89
2018-12-02T02:18:48.839Z,82.89
2018-12-02T02:19:48.820Z,83.31
2018-12-02T02:20:48.813Z,83.20
2018-12-02T02:21:48.802Z,83.31
2018-12-02T02:22:48.812Z,83.10
2018-12-02T02:23:49.791Z,82.89
2018-12-02T02:24:48.784Z,82.27
2018-12-02T02:25:48.746Z,82.58
2018-12-02T02:26:48.763Z,82.58
2018-12-02T02:27:48.739Z,82.37
2018-12-02T02:28:48.733Z,82.37
2018-12-02T02:29:48.709Z,82.34
2018-12-02T02:30:48.705Z,81.82
2018-12-02T02:31:48.689Z,81.92
2018-12-02T02:32:48.692Z,81.82
2018-12-02T02:33:48.665Z,81.61
2018-12-02T02:34:48.652Z,81.61
2018-12-02T02:35:48.652Z,81.40
2018-12-02T02:36:48.625Z,81.61
2018-12-02T02:37:48.676Z,81.40
2018-12-02T02:38:48.600Z,81.71
2018-12-02T02:39:48.634Z,81.47
2018-12-02T02:40:48.582Z,81.57
2018-12-02T02:41:48.602Z,81.51
2018-12-02T02:42:48.567Z,81.40
2018-12-02T02:43:48.548Z,81.71
2018-12-02T02:44:48.540Z,82.03
2018-12-02T02:45:48.524Z,81.92
2018-12-02T02:46:48.533Z,82.03
2018-12-02T02:47:48.536Z,82.27
2018-12-02T02:48:48.496Z,82.48
2018-12-02T02:49:48.486Z,82.17
2018-12-02T02:50:48.487Z,82.27
2018-12-02T02:51:48.458Z,82.48
2018-12-02T02:52:48.461Z,82.68
2018-12-02T02:53:48.449Z,83.00
2018-12-02T02:54:48.453Z,83.00
2018-12-02T02:55:48.409Z,83.41
2018-12-02T02:56:48.432Z,83.34
2018-12-02T02:57:48.399Z,82.79
2018-12-02T02:58:48.403Z,83.14
2018-12-02T02:59:48.365Z,83.03
2018-12-02T03:00:48.367Z,82.93
2018-12-02T03:01:48.352Z,83.34
2018-12-02T03:02:48.340Z,83.34
2018-12-02T03:03:48.338Z,83.55
2018-12-02T03:04:48.311Z,83.86
2018-12-02T03:05:49.006Z,83.86
2018-12-02T03:06:48.285Z,83.76
2018-12-02T03:07:48.292Z,83.55
2018-12-02T03:08:48.273Z,83.76
2018-12-02T03:09:48.251Z,83.34
2018-12-02T03:10:48.242Z,83.45
2018-12-02T03:11:48.229Z,83.17
2018-12-02T03:12:48.212Z,83.17
2018-12-02T03:13:48.222Z,83.24
2018-12-02T03:14:48.190Z,83.03
2018-12-02T03:15:48.177Z,83.24
2018-12-02T03:16:48.178Z,83.69
2018-12-02T03:17:48.160Z,83.86
2018-12-02T03:18:48.495Z,83.48
2018-12-02T03:19:48.132Z,83.24
2018-12-02T03:20:48.121Z,83.45
2018-12-02T03:21:48.115Z,83.38
2018-12-02T03:22:48.098Z,83.45
2018-12-02T03:23:48.117Z,83.24
2018-12-02T03:24:48.075Z,83.14
2018-12-02T03:25:48.064Z,83.45
2018-12-02T03:26:48.054Z,83.03
2018-12-02T03:27:48.045Z,83.34
2018-12-02T03:28:48.032Z,83.24
2018-12-02T03:29:48.030Z,83.45
2018-12-02T03:30:48.009Z,83.65
2018-12-02T03:31:48.000Z,83.45
2018-12-02T03:32:47.988Z,83.34
2018-12-02T03:33:48.483Z,83.55
2018-12-02T03:34:47.976Z,83.03
2018-12-02T03:35:47.952Z,83.34
2018-12-02T03:36:47.940Z,83.24
2018-12-02T03:37:47.931Z,83.55
2018-12-02T03:38:47.918Z,83.45
2018-12-02T03:39:47.921Z,83.45
2018-12-02T03:40:47.895Z,83.65
2018-12-02T03:41:47.886Z,83.65
2018-12-02T03:42:47.874Z,83.24
2018-12-02T03:43:47.861Z,83.31
2018-12-02T03:44:47.861Z,83.10
2018-12-02T03:45:47.840Z,83.20
2018-12-02T03:46:47.828Z,83.72
2018-12-02T03:47:47.821Z,83.10
2018-12-02T03:48:47.805Z,83.31
2018-12-02T03:49:47.824Z,83.00
2018-12-02T03:50:47.786Z,83.31
2018-12-02T03:51:47.771Z,83.31
2018-12-02T03:52:47.762Z,83.26
2018-12-02T03:53:47.749Z,83.41
2018-12-02T03:54:47.739Z,83.00
2018-12-02T03:55:47.738Z,82.95
2018-12-02T03:56:47.715Z,82.95
2018-12-02T03:57:47.704Z,83.06
2018-12-02T03:58:47.692Z,82.65
2018-12-02T03:59:47.683Z,82.54
2018-12-02T04:00:47.682Z,82.13
2018-12-02T04:01:47.659Z,82.75
2018-12-02T04:02:47.650Z,82.13
2018-12-02T04:03:47.642Z,82.50
2018-12-02T04:04:47.626Z,82.29
2018-12-02T04:05:47.629Z,82.40
2018-12-02T04:06:47.603Z,82.65
2018-12-02T04:07:47.598Z,82.13
2018-12-02T04:08:47.580Z,82.19
2018-12-02T04:09:47.568Z,82.19
2018-12-02T04:10:47.575Z,82.29
2018-12-02T04:11:47.546Z,82.13
2018-12-02T04:12:47.536Z,82.29
2018-12-02T04:13:47.526Z,81.99
2018-12-02T04:14:47.512Z,82.40
2018-12-02T04:15:47.511Z,81.88
2018-12-02T04:16:47.496Z,81.88
2018-12-02T04:17:47.481Z,81.78
2018-12-02T04:18:47.468Z,81.88
2018-12-02T04:19:47.457Z,81.88
2018-12-02T04:20:47.456Z,81.88
2018-12-02T04:21:47.434Z,82.19
2018-12-02T04:22:47.423Z,81.99
2018-12-02T04:23:47.412Z,81.78
2018-12-02T04:24:47.399Z,81.99
2018-12-02T04:25:47.399Z,81.78
2018-12-02T04:26:47.378Z,81.68
2018-12-02T04:27:47.369Z,81.68
2018-12-02T04:28:47.355Z,81.99
2018-12-02T04:29:47.345Z,81.88
2018-12-02T04:30:47.345Z,81.47
2018-12-02T04:31:47.322Z,81.57
2018-12-02T04:32:47.312Z,81.47
2018-12-02T04:33:47.299Z,81.47
2018-12-02T04:34:47.290Z,81.78
2018-12-02T04:35:47.287Z,81.26
2018-12-02T04:36:47.265Z,81.37
2018-12-02T04:37:47.254Z,81.26
2018-12-02T04:38:47.244Z,81.26
2018-12-02T04:39:47.232Z,81.05
2018-12-02T04:40:47.231Z,80.95
2018-12-02T04:41:47.208Z,80.95
2018-12-02T04:42:47.198Z,80.85
2018-12-02T04:43:47.189Z,81.16
2018-12-02T04:44:47.178Z,80.85
2018-12-02T04:45:47.187Z,80.74
2018-12-02T04:46:47.154Z,81.16
2018-12-02T04:47:47.141Z,81.16
2018-12-02T04:48:47.130Z,81.40
2018-12-02T04:49:47.119Z,81.51
2018-12-02T04:50:47.137Z,81.92
2018-12-02T04:51:47.096Z,81.71
2018-12-02T04:52:47.090Z,81.71
2018-12-02T04:53:47.073Z,81.75
2018-12-02T04:54:47.064Z,81.92
2018-12-02T04:55:47.055Z,81.96
2018-12-02T04:56:47.057Z,81.96
2018-12-02T04:57:47.988Z,82.03
2018-12-02T04:58:47.016Z,81.75
2018-12-02T04:59:47.403Z,81.96
2018-12-02T05:00:46.995Z,81.75
2018-12-02T05:01:46.994Z,81.75
2018-12-02T05:02:46.974Z,81.75
2018-12-02T05:03:46.962Z,82.27
2018-12-02T05:04:46.949Z,82.17
2018-12-02T05:05:46.938Z,82.06
2018-12-02T05:06:46.961Z,81.85
2018-12-02T05:07:46.919Z,81.85
2018-12-02T05:08:46.939Z,81.75
2018-12-02T05:09:46.894Z,81.85
2018-12-02T05:10:46.883Z,81.85
2018-12-02T05:11:46.870Z,82.17
2018-12-02T05:12:46.870Z,82.17
2018-12-02T05:13:46.848Z,81.96
2018-12-02T05:14:46.837Z,82.06
2018-12-02T05:15:46.828Z,82.37
2018-12-02T05:16:46.815Z,81.79
2018-12-02T05:17:46.815Z,82.20
2018-12-02T05:18:46.792Z,81.79
2018-12-02T05:19:46.781Z,82.10
2018-12-02T05:20:46.769Z,82.31
2018-12-02T05:21:46.759Z,81.99
2018-12-02T05:22:46.757Z,82.27
2018-12-02T05:23:46.736Z,81.99
2018-12-02T05:24:46.726Z,81.89
2018-12-02T05:25:46.715Z,81.99
2018-12-02T05:26:46.702Z,82.31
2018-12-02T05:27:46.707Z,82.31
2018-12-02T05:28:46.682Z,81.89
2018-12-02T05:29:46.670Z,81.89
2018-12-02T05:30:46.657Z,81.89
2018-12-02T05:31:46.645Z,81.96
2018-12-02T05:32:46.645Z,81.89
2018-12-02T05:33:46.623Z,81.96
2018-12-02T05:34:46.614Z,82.06
2018-12-02T05:35:46.600Z,81.85
2018-12-02T05:36:46.591Z,82.06
2018-12-02T05:37:46.611Z,81.75
2018-12-02T05:38:46.581Z,81.96
2018-12-02T05:39:46.554Z,81.54
2018-12-02T05:40:46.544Z,81.65
2018-12-02T05:41:46.533Z,81.44
2018-12-02T05:42:46.521Z,81.54
2018-12-02T05:43:46.521Z,81.65
2018-12-02T05:44:46.499Z,81.65
2018-12-02T05:45:46.488Z,81.54
2018-12-02T05:46:46.477Z,81.44
2018-12-02T05:47:46.466Z,81.75
2018-12-02T05:48:46.466Z,81.23
2018-12-02T05:49:46.443Z,81.23
2018-12-02T05:50:46.430Z,81.54
2018-12-02T05:51:46.420Z,81.65
2018-12-02T05:52:46.410Z,81.44
2018-12-02T05:53:46.408Z,81.54
2018-12-02T05:54:46.388Z,81.75
2018-12-02T05:55:46.376Z,80.92
2018-12-02T05:56:46.363Z,80.71
2018-12-02T05:57:46.357Z,80.47
2018-12-02T05:58:46.413Z,80.57
2018-12-02T05:59:46.334Z,81.20
2018-12-02T06:00:46.320Z,81.20
2018-12-02T06:01:46.308Z,81.09
2018-12-02T06:02:46.295Z,80.57
2018-12-02T06:03:46.297Z,81.34
2018-12-02T06:04:46.274Z,80.36
2018-12-02T06:05:46.261Z,80.47
2018-12-02T06:06:46.252Z,80.57
2018-12-02T06:07:46.243Z,80.68
2018-12-02T06:08:46.240Z,80.47
2018-12-02T06:09:46.216Z,80.47
2018-12-02T06:10:46.209Z,80.78
2018-12-02T06:11:46.207Z,80.51
2018-12-02T06:12:46.183Z,80.26
2018-12-02T06:13:46.182Z,79.85
2018-12-02T06:14:46.167Z,80.16
2018-12-02T06:15:46.157Z,79.64
2018-12-02T06:16:46.139Z,79.50
2018-12-02T06:17:46.127Z,79.54
2018-12-02T06:18:46.144Z,79.19
2018-12-02T06:19:46.105Z,79.19
2018-12-02T06:20:46.094Z,79.30
2018-12-02T06:21:46.082Z,79.50
2018-12-02T06:22:46.071Z,78.88
2018-12-02T06:23:46.059Z,78.88
2018-12-02T06:24:46.061Z,78.36
2018-12-02T06:25:46.593Z,77.70
2018-12-02T06:26:46.026Z,78.02
2018-12-02T06:27:46.016Z,77.19
2018-12-02T06:28:46.005Z,77.39
2018-12-02T06:29:46.002Z,77.50
2018-12-02T06:30:45.981Z,76.88
2018-12-02T06:31:45.970Z,77.09
2018-12-02T06:32:45.959Z,76.78
2018-12-02T06:33:45.956Z,76.74
2018-12-02T06:34:45.946Z,76.84
2018-12-02T06:35:45.925Z,76.43
2018-12-02T06:36:45.913Z,76.43
2018-12-02T06:37:45.972Z,76.32
2018-12-02T06:38:45.894Z,75.91
2018-12-02T06:39:45.892Z,75.81
2018-12-02T06:40:45.865Z,75.91
2018-12-02T06:41:45.861Z,75.88
2018-12-02T06:42:45.848Z,75.05
2018-12-02T06:43:45.837Z,75.26
2018-12-02T06:44:45.858Z,74.63
2018-12-02T06:45:45.813Z,74.53
2018-12-02T06:46:45.805Z,74.43
2018-12-02T06:47:45.794Z,74.33
2018-12-02T06:48:45.780Z,74.33
2018-12-02T06:49:45.778Z,74.22
2018-12-02T06:50:45.773Z,74.63
2018-12-02T06:51:45.747Z,74.53
2018-12-02T06:52:45.735Z,74.33
2018-12-02T06:53:45.724Z,74.33
2018-12-02T06:54:45.713Z,74.22
2018-12-02T06:55:45.716Z,74.22
2018-12-02T06:56:45.693Z,74.22
2018-12-02T06:57:45.679Z,74.22
2018-12-02T06:58:45.668Z,74.02
2018-12-02T06:59:45.660Z,73.50
2018-12-02T07:00:45.663Z,73.91
2018-12-02T07:01:45.635Z,73.71
2018-12-02T07:02:45.624Z,73.60
2018-12-02T07:03:45.613Z,73.81
2018-12-02T07:04:45.602Z,74.12
2018-12-02T07:05:45.604Z,73.81
2018-12-02T07:06:45.588Z,74.33
2018-12-02T07:07:45.569Z,74.63
2018-12-02T07:08:45.556Z,74.33
2018-12-02T07:09:45.545Z,74.22
2018-12-02T07:10:45.547Z,74.22
2018-12-02T07:11:45.522Z,74.12
2018-12-02T07:12:45.517Z,74.12
2018-12-02T07:13:45.500Z,74.33
2018-12-02T07:14:45.489Z,74.12
2018-12-02T07:15:45.506Z,74.22
2018-12-02T07:16:45.471Z,74.43
2018-12-02T07:17:45.467Z,74.43
2018-12-02T07:18:45.444Z,74.50
2018-12-02T07:19:45.434Z,74.53
2018-12-02T07:20:45.422Z,74.63
2018-12-02T07:21:45.424Z,74.53
2018-12-02T07:22:45.404Z,74.43
2018-12-02T07:23:45.400Z,74.53
2018-12-02T07:24:45.378Z,74.33
2018-12-02T07:25:45.368Z,74.22
2018-12-02T07:26:45.372Z,74.33
2018-12-02T07:27:45.356Z,74.12
2018-12-02T07:28:45.335Z,74.43
2018-12-02T07:29:45.330Z,74.53
2018-12-02T07:30:45.313Z,74.84
2018-12-02T07:31:45.310Z,74.33
2018-12-02T07:32:45.289Z,74.33
2018-12-02T07:33:45.279Z,74.74
2018-12-02T07:34:45.992Z,74.74
2018-12-02T07:35:45.256Z,74.63
2018-12-02T07:36:45.256Z,74.53
2018-12-02T07:37:45.234Z,74.84
2018-12-02T07:38:45.223Z,74.63
2018-12-02T07:39:45.211Z,75.05
2018-12-02T07:40:45.202Z,74.84
2018-12-02T07:41:45.205Z,74.95
2018-12-02T07:42:45.178Z,74.95
2018-12-02T07:43:45.168Z,74.84
2018-12-02T07:44:45.157Z,74.74
2018-12-02T07:45:45.146Z,74.63
2018-12-02T07:46:45.996Z,75.15
2018-12-02T07:47:45.124Z,75.05
2018-12-02T07:48:45.112Z,75.05
2018-12-02T07:49:45.100Z,74.98
2018-12-02T07:50:45.093Z,75.26
2018-12-02T07:51:45.112Z,75.60
2018-12-02T07:52:45.067Z,75.50
2018-12-02T07:53:45.056Z,75.29
2018-12-02T07:54:45.044Z,75.50
2018-12-02T07:55:45.035Z,75.91
2018-12-02T07:56:45.022Z,75.70
2018-12-02T07:57:45.993Z,75.50
2018-12-02T07:58:44.999Z,75.60
2018-12-02T07:59:44.992Z,75.57
2018-12-02T08:00:44.980Z,76.12
2018-12-02T08:01:44.970Z,75.91
2018-12-02T08:02:44.971Z,75.70
2018-12-02T08:03:44.949Z,75.91
2018-12-02T08:04:44.933Z,75.91
2018-12-02T08:05:44.922Z,75.91
2018-12-02T08:06:44.911Z,76.01
2018-12-02T08:07:44.917Z,76.01
2018-12-02T08:08:45.476Z,75.60
2018-12-02T08:09:44.915Z,76.12
2018-12-02T08:10:44.867Z,76.32
2018-12-02T08:11:44.857Z,75.81
2018-12-02T08:12:44.859Z,76.01
2018-12-02T08:13:44.833Z,76.01
2018-12-02T08:14:44.861Z,76.01
2018-12-02T08:15:44.810Z,75.91
2018-12-02T08:16:44.799Z,75.84
2018-12-02T08:17:44.814Z,76.22
2018-12-02T08:18:44.777Z,75.70
2018-12-02T08:19:44.773Z,76.32
2018-12-02T08:20:44.786Z,76.01
2018-12-02T08:21:44.745Z,76.01
2018-12-02T08:22:44.741Z,75.91
2018-12-02T08:23:44.752Z,76.12
2018-12-02T08:24:44.710Z,76.12
2018-12-02T08:25:44.699Z,76.12
2018-12-02T08:26:44.687Z,76.01
2018-12-02T08:27:44.678Z,76.01
2018-12-02T08:28:44.675Z,75.81
2018-12-02T08:29:44.655Z,75.81
2018-12-02T08:30:44.642Z,75.91
2018-12-02T08:31:44.654Z,75.81
2018-12-02T08:32:44.618Z,75.78
2018-12-02T08:33:44.616Z,75.46
2018-12-02T08:34:44.599Z,75.36
2018-12-02T08:35:44.590Z,75.05
2018-12-02T08:36:44.579Z,75.15
2018-12-02T08:37:44.571Z,74.84
2018-12-02T08:38:44.587Z,75.15
2018-12-02T08:39:44.541Z,75.05
2018-12-02T08:40:44.531Z,74.53
2018-12-02T08:41:44.528Z,74.95
2018-12-02T08:42:44.525Z,75.05
2018-12-02T08:43:44.513Z,75.15
2018-12-02T08:44:44.518Z,75.26
2018-12-02T08:45:44.477Z,74.95
2018-12-02T08:46:44.465Z,75.15
2018-12-02T08:47:44.454Z,75.15
2018-12-02T08:48:44.459Z,75.15
2018-12-02T08:49:44.440Z,74.95
2018-12-02T08:50:44.424Z,75.15
2018-12-02T08:51:44.409Z,75.36
2018-12-02T08:52:44.399Z,75.36
2018-12-02T08:53:44.416Z,75.05
2018-12-02T08:54:44.377Z,75.15
2018-12-02T08:55:44.370Z,75.05
2018-12-02T08:56:44.353Z,75.01
2018-12-02T08:57:44.343Z,74.95
2018-12-02T08:58:44.347Z,75.15
2018-12-02T08:59:44.489Z,75.26
2018-12-02T09:00:44.316Z,75.36
2018-12-02T09:01:44.305Z,75.26
2018-12-02T09:02:44.293Z,74.95
2018-12-02T09:03:44.291Z,75.15
2018-12-02T09:04:44.284Z,75.15
2018-12-02T09:05:44.255Z,75.05
2018-12-02T09:06:44.247Z,75.05
2018-12-02T09:07:44.237Z,75.15
2018-12-02T09:08:44.256Z,74.91
2018-12-02T09:09:44.229Z,74.60
2018-12-02T09:10:45.746Z,74.71
2018-12-02T09:11:44.205Z,74.91
2018-12-02T09:12:44.236Z,74.91
2018-12-02T09:13:44.165Z,74.40
2018-12-02T09:14:44.163Z,74.71
2018-12-02T09:15:44.144Z,74.19
2018-12-02T09:16:44.136Z,74.50
2018-12-02T09:17:44.121Z,74.40
2018-12-02T09:18:44.108Z,74.71
2018-12-02T09:19:44.125Z,74.08
2018-12-02T09:20:44.089Z,74.60
2018-12-02T09:21:44.082Z,74.36
2018-12-02T09:22:44.073Z,74.26
2018-12-02T09:23:47.443Z,74.08
2018-12-02T09:24:44.043Z,73.85
2018-12-02T09:25:44.040Z,73.43
2018-12-02T09:26:44.998Z,74.26
2018-12-02T09:27:44.010Z,73.74
2018-12-02T09:28:43.998Z,73.22
2018-12-02T09:29:43.987Z,73.33
2018-12-02T09:30:43.997Z,73.43
2018-12-02T09:31:43.963Z,73.22
2018-12-02T09:32:43.954Z,73.33
2018-12-02T09:33:43.961Z,72.91
2018-12-02T09:34:43.942Z,72.78
2018-12-02T09:35:43.928Z,72.99
2018-12-02T09:36:43.908Z,73.02
2018-12-02T09:37:43.895Z,72.99
2018-12-02T09:38:43.892Z,72.67
2018-12-02T09:39:43.874Z,72.67
2018-12-02T09:40:43.876Z,72.47
2018-12-02T09:41:43.852Z,72.57
2018-12-02T09:42:43.840Z,72.99
2018-12-02T09:43:43.831Z,72.67
2018-12-02T09:44:43.824Z,72.67
2018-12-02T09:45:43.818Z,72.88
2018-12-02T09:46:43.797Z,73.29
2018-12-02T09:47:43.808Z,73.09
2018-12-02T09:48:43.772Z,72.88
2018-12-02T09:49:43.765Z,73.29
2018-12-02T09:50:43.763Z,72.67
2018-12-02T09:51:43.738Z,72.47
2018-12-02T09:52:43.729Z,72.47
2018-12-02T09:53:43.718Z,72.88
2018-12-02T09:54:43.708Z,72.88
2018-12-02T09:55:43.711Z,72.57
2018-12-02T09:56:43.686Z,72.64
2018-12-02T09:57:43.673Z,72.85
2018-12-02T09:58:43.661Z,72.74
2018-12-02T09:59:43.649Z,72.54
2018-12-02T10:00:43.773Z,72.44
2018-12-02T10:01:43.669Z,72.44
2018-12-02T10:02:43.621Z,72.95
2018-12-02T10:03:43.606Z,72.74
2018-12-02T10:04:43.629Z,72.44
2018-12-02T10:05:43.585Z,72.95
2018-12-02T10:06:43.582Z,72.44
2018-12-02T10:07:43.560Z,72.54
2018-12-02T10:08:43.549Z,72.33
2018-12-02T10:09:43.539Z,72.30
2018-12-02T10:10:43.530Z,72.19
2018-12-02T10:11:43.525Z,72.09
2018-12-02T10:12:43.512Z,72.71
2018-12-02T10:13:43.493Z,72.40
2018-12-02T10:14:43.482Z,72.50
2018-12-02T10:15:43.471Z,72.50
2018-12-02T10:16:43.471Z,72.54
2018-12-02T10:17:43.504Z,72.50
2018-12-02T10:18:43.443Z,72.92
2018-12-02T10:19:43.428Z,72.50
2018-12-02T10:20:43.414Z,71.95
2018-12-02T10:21:43.414Z,72.37
2018-12-02T10:22:43.391Z,72.30
2018-12-02T10:23:43.387Z,72.30
2018-12-02T10:24:43.369Z,72.27
2018-12-02T10:25:43.358Z,72.58
2018-12-02T10:26:43.377Z,72.47
2018-12-02T10:27:43.334Z,72.78
2018-12-02T10:28:43.324Z,72.67
2018-12-02T10:29:43.312Z,72.78
2018-12-02T10:30:43.301Z,72.37
2018-12-02T10:31:43.289Z,72.27
2018-12-02T10:32:43.288Z,71.75
2018-12-02T10:33:43.268Z,72.16
2018-12-02T10:34:43.258Z,71.85
2018-12-02T10:35:43.256Z,72.27
2018-12-02T10:36:43.238Z,71.85
2018-12-02T10:37:43.233Z,72.23
2018-12-02T10:38:43.210Z,71.85
2018-12-02T10:39:43.201Z,72.16
2018-12-02T10:40:43.188Z,71.75
2018-12-02T10:41:43.174Z,71.85
2018-12-02T10:42:43.174Z,71.82
2018-12-02T10:43:43.153Z,72.06
2018-12-02T10:44:43.141Z,71.92
2018-12-02T10:45:43.136Z,72.13
2018-12-02T10:46:44.027Z,72.03
2018-12-02T10:47:43.119Z,72.13
2018-12-02T10:48:43.095Z,72.13
2018-12-02T10:49:43.085Z,72.33
2018-12-02T10:50:43.073Z,72.13
2018-12-02T10:51:43.068Z,72.03
2018-12-02T10:52:43.067Z,72.03
2018-12-02T10:53:43.039Z,71.82
2018-12-02T10:54:43.026Z,72.33
2018-12-02T10:55:43.015Z,72.03
2018-12-02T10:56:43.008Z,72.03
2018-12-02T10:57:43.007Z,71.72
2018-12-02T10:58:42.982Z,72.13
2018-12-02T10:59:42.970Z,72.54
2018-12-02T11:00:42.959Z,72.03
2018-12-02T11:01:42.948Z,72.03
2018-12-02T11:02:42.965Z,71.92
2018-12-02T11:03:42.924Z,72.20
2018-12-02T11:04:42.915Z,71.92
2018-12-02T11:05:42.903Z,71.72
2018-12-02T11:06:42.892Z,72.13
2018-12-02T11:07:42.886Z,71.41
2018-12-02T11:08:42.879Z,72.23
2018-12-02T11:09:42.857Z,72.23
2018-12-02T11:10:42.846Z,72.13
2018-12-02T11:11:42.834Z,72.13
2018-12-02T11:12:42.822Z,72.23
2018-12-02T11:13:42.825Z,71.89
2018-12-02T11:14:42.805Z,71.72
2018-12-02T11:15:42.790Z,72.23
2018-12-02T11:16:42.777Z,72.23
2018-12-02T11:17:42.765Z,72.30
2018-12-02T11:18:42.773Z,72.44
2018-12-02T11:19:42.742Z,72.51
2018-12-02T11:20:42.732Z,72.33
2018-12-02T11:21:42.720Z,72.51
2018-12-02T11:22:42.709Z,72.96
2018-12-02T11:23:42.718Z,73.23
2018-12-02T11:24:42.684Z,73.85
2018-12-02T11:25:42.674Z,74.29
2018-12-02T11:26:42.662Z,74.19
2018-12-02T11:27:42.663Z,74.40
2018-12-02T11:28:42.651Z,74.29
2018-12-02T11:29:49.687Z,74.29
2018-12-02T11:30:49.649Z,74.29
2018-12-02T11:31:49.655Z,73.98
2018-12-02T11:32:42.595Z,73.85
2018-12-02T11:33:42.595Z,74.19
2018-12-02T11:34:42.571Z,73.57
2018-12-02T11:35:42.566Z,73.57
2018-12-02T11:36:42.549Z,73.54
2018-12-02T11:37:42.536Z,73.36
2018-12-02T11:38:42.537Z,72.85
2018-12-02T11:39:42.514Z,73.26
2018-12-02T11:40:42.503Z,72.71
2018-12-02T11:41:49.521Z,72.71
2018-12-02T11:42:49.511Z,72.71
2018-12-02T11:43:49.516Z,72.30
2018-12-02T11:44:49.497Z,72.61
2018-12-02T11:45:49.490Z,72.81
2018-12-02T11:46:49.457Z,72.51
2018-12-02T11:47:49.456Z,72.92
2018-12-02T11:48:49.474Z,72.61
2018-12-02T11:49:50.413Z,72.61
2018-12-02T11:50:50.643Z,72.51
2018-12-02T11:51:49.406Z,72.61
2018-12-02T11:52:50.389Z,72.30
2018-12-02T11:53:49.385Z,72.81
2018-12-02T11:54:49.393Z,72.81
2018-12-02T11:55:49.364Z,72.61
2018-12-02T11:56:49.354Z,72.51
2018-12-02T11:57:49.341Z,72.41
2018-12-02T11:58:42.311Z,72.51
2018-12-02T11:59:42.322Z,72.61
2018-12-02T12:00:42.282Z,72.47
2018-12-02T12:01:42.268Z,72.47
2018-12-02T12:02:49.285Z,72.68
2018-12-02T12:03:49.271Z,72.58
2018-12-02T12:04:49.274Z,72.68
2018-12-02T12:05:49.249Z,72.99
2018-12-02T12:06:49.889Z,72.78
2018-12-02T12:07:49.232Z,73.19
2018-12-02T12:08:49.241Z,72.88
2018-12-02T12:09:50.206Z,72.68
2018-12-02T12:10:49.194Z,72.68
2018-12-02T12:11:49.183Z,72.99
2018-12-02T12:12:50.083Z,72.99
2018-12-02T12:13:49.157Z,73.50
2018-12-02T12:14:50.148Z,73.30
2018-12-02T12:15:42.117Z,73.30
2018-12-02T12:16:42.101Z,73.30
2018-12-02T12:17:49.116Z,72.99
2018-12-02T12:18:42.087Z,73.61
2018-12-02T12:19:42.126Z,73.50
2018-12-02T12:20:42.066Z,73.71
2018-12-02T12:21:49.072Z,73.40
2018-12-02T12:22:42.037Z,73.81
2018-12-02T12:23:42.022Z,74.02
2018-12-02T12:24:42.041Z,74.02
2018-12-02T12:25:42.040Z,73.81
2018-12-02T12:26:41.991Z,74.33
2018-12-02T12:27:41.977Z,74.02
2018-12-02T12:28:41.969Z,74.22
2018-12-02T12:29:41.954Z,74.33
2018-12-02T12:30:41.955Z,74.22
2018-12-02T12:31:41.936Z,74.74
2018-12-02T12:32:41.932Z,74.95
2018-12-02T12:33:41.911Z,75.15
2018-12-02T12:34:41.897Z,75.05
2018-12-02T12:35:41.897Z,75.25
2018-12-02T12:36:41.878Z,75.77
2018-12-02T12:37:41.866Z,75.46
2018-12-02T12:38:41.851Z,75.56
2018-12-02T12:39:41.839Z,75.87
2018-12-02T12:40:41.837Z,75.97
2018-12-02T12:41:41.812Z,75.97
2018-12-02T12:42:41.805Z,76.18
2018-12-02T12:43:41.802Z,75.81
2018-12-02T12:44:41.788Z,76.01
2018-12-02T12:45:41.783Z,76.07
2018-12-02T12:46:41.767Z,76.32
2018-12-02T12:47:41.747Z,76.11
2018-12-02T12:48:41.737Z,76.70
2018-12-02T12:49:41.727Z,77.14
2018-12-02T12:50:41.727Z,76.32
2018-12-02T12:51:41.703Z,77.04
2018-12-02T12:52:41.692Z,77.04